createdAt,value
2023-11-12T00:00:08.820Z,1.00
2023-11-12T00:02:35.617Z,0.70
2023-11-12T00:05:02.400Z,0.50
2023-11-12T00:07:29.388Z,1.00
2023-11-12T00:09:56.127Z,0.80
2023-11-12T00:12:23.713Z,2.80
2023-11-12T00:14:51.212Z,1.30
2023-11-12T00:17:18.388Z,0.90
2023-11-12T00:19:45.250Z,0.70
2023-11-12T00:22:12.886Z,1.00
2023-11-12T00:24:40.343Z,1.30
2023-11-12T00:27:07.092Z,3.10
2023-11-12T00:29:34.477Z,0.80
2023-11-12T00:32:01.614Z,0.70
2023-11-12T00:34:28.376Z,1.20
2023-11-12T00:36:56.339Z,0.70
2023-11-12T00:39:23.024Z,0.60
2023-11-12T00:41:50.132Z,0.90
2023-11-12T00:44:18.260Z,0.40
2023-11-12T00:46:45.174Z,0.70
2023-11-12T00:49:11.916Z,0.90
2023-11-12T00:51:38.727Z,1.30
2023-11-12T00:54:05.649Z,0.80
2023-11-12T00:56:32.692Z,1.80
2023-11-12T00:58:59.820Z,1.30
2023-11-12T01:01:27.053Z,0.70
2023-11-12T01:03:56.449Z,1.90
2023-11-12T01:06:23.429Z,1.10
2023-11-12T01:08:50.412Z,0.90
2023-11-12T01:11:17.233Z,1.40
2023-11-12T01:13:44.349Z,0.80
2023-11-12T01:16:11.308Z,3.10
2023-11-12T01:18:40.989Z,0.70
2023-11-12T01:21:08.095Z,0.80
2023-11-12T01:23:35.348Z,0.90
2023-11-12T01:26:02.394Z,0.50
2023-11-12T01:28:34.801Z,1.10
2023-11-12T01:31:02.808Z,1.20
2023-11-12T01:33:30.202Z,0.90
2023-11-12T01:35:57.421Z,2.00
2023-11-12T01:38:24.375Z,0.30
2023-11-12T01:40:51.448Z,0.30
2023-11-12T01:43:19.906Z,0.90
2023-11-12T01:45:46.641Z,0.50
2023-11-12T01:48:14.607Z,0.70
2023-11-12T01:50:43.263Z,0.20
2023-11-12T01:53:13.822Z,0.30
2023-11-12T01:55:41.500Z,0.30
2023-11-12T01:58:12.229Z,0.60
2023-11-12T02:00:40.371Z,0.50
2023-11-12T02:03:09.678Z,0.40
2023-11-12T02:05:36.717Z,0.30
2023-11-12T02:08:06.658Z,0.40
2023-11-12T02:10:36.208Z,0.50
2023-11-12T02:13:07.512Z,0.40
2023-11-12T02:15:34.924Z,0.40
2023-11-12T02:18:01.800Z,0.30
2023-11-12T02:20:28.525Z,0.40
2023-11-12T02:22:55.356Z,0.30
2023-11-12T02:25:22.296Z,0.50
2023-11-12T02:27:49.216Z,3.40
2023-11-12T02:30:19.419Z,0.70
2023-11-12T02:32:46.296Z,0.30
2023-11-12T02:35:13.766Z,0.50
2023-11-12T02:37:40.708Z,0.40
2023-11-12T02:40:08.652Z,0.30
2023-11-12T02:42:37.093Z,0.40
2023-11-12T02:45:05.590Z,0.30
2023-11-12T02:47:32.832Z,0.40
2023-11-12T02:50:06.158Z,0.80
2023-11-12T02:52:33.737Z,1.10
2023-11-12T02:55:00.984Z,1.00
2023-11-12T02:57:28.188Z,0.80
2023-11-12T02:59:55.192Z,0.30
2023-11-12T03:02:22.792Z,0.90
2023-11-12T03:04:51.288Z,0.40
2023-11-12T03:07:20.921Z,0.40
2023-11-12T03:09:48.266Z,0.50
2023-11-12T03:12:15.921Z,0.90
2023-11-12T03:14:43.838Z,0.30
2023-11-12T03:17:10.672Z,0.40
2023-11-12T03:19:38.291Z,0.30
2023-11-12T03:22:05.394Z,0.40
2023-11-12T03:24:32.553Z,0.30
2023-11-12T03:26:59.542Z,0.40
2023-11-12T03:29:26.251Z,0.50
2023-11-12T03:31:54.656Z,0.30
2023-11-12T03:34:22.672Z,0.40
2023-11-12T03:36:49.761Z,0.50
2023-11-12T03:39:17.951Z,0.40
2023-11-12T03:41:44.834Z,0.60
2023-11-12T03:44:11.618Z,0.50
2023-11-12T03:46:38.500Z,0.50
2023-11-12T03:49:05.363Z,0.80
2023-11-12T03:51:35.760Z,0.60
2023-11-12T03:54:02.984Z,0.50
2023-11-12T03:56:30.540Z,0.40
2023-11-12T03:58:57.757Z,1.50
2023-11-12T04:01:24.888Z,0.90
2023-11-12T04:03:52.338Z,0.70
2023-11-12T04:06:20.326Z,1.60
2023-11-12T04:08:47.234Z,0.90
2023-11-12T04:11:14.363Z,0.40
2023-11-12T04:13:41.181Z,0.40
2023-11-12T04:16:09.211Z,2.20
2023-11-12T04:18:36.735Z,0.60
2023-11-12T04:21:06.235Z,0.70
2023-11-12T04:23:33.155Z,1.00
2023-11-12T04:25:59.977Z,0.50
2023-11-12T04:28:27.678Z,0.70
2023-11-12T04:30:55.589Z,2.10
2023-11-12T04:33:22.451Z,1.30
2023-11-12T04:35:50.583Z,0.90
2023-11-12T04:38:18.279Z,1.90
2023-11-12T04:40:47.626Z,1.20
2023-11-12T04:43:16.311Z,0.70
2023-11-12T04:45:43.457Z,2.00
2023-11-12T04:48:11.849Z,1.40
2023-11-12T04:50:39.262Z,2.30
2023-11-12T04:53:06.804Z,1.00
2023-11-12T04:55:34.645Z,1.30
2023-11-12T04:58:08.035Z,0.30
2023-11-12T05:00:34.818Z,0.60
2023-11-12T05:03:05.509Z,0.40
2023-11-12T05:05:32.638Z,0.70
2023-11-12T05:07:59.526Z,1.20
2023-11-12T05:10:44.116Z,0.60
2023-11-12T05:13:14.007Z,1.50
2023-11-12T05:15:41.552Z,5.20
2023-11-12T05:18:08.835Z,5.40
2023-11-12T05:20:35.724Z,2.10
2023-11-12T05:23:02.511Z,1.20
2023-11-12T05:25:30.234Z,3.10
2023-11-12T05:27:56.971Z,3.60
2023-11-12T05:30:23.853Z,3.90
2023-11-12T05:32:51.476Z,3.70
2023-11-12T05:35:19.703Z,4.70
2023-11-12T05:37:48.042Z,4.80
2023-11-12T05:40:15.128Z,3.30
2023-11-12T05:42:42.750Z,3.60
2023-11-12T05:45:10.436Z,4.30
2023-11-12T05:47:37.316Z,3.30
2023-11-12T05:50:04.482Z,4.20
2023-11-12T05:52:31.215Z,2.10
2023-11-12T05:54:58.003Z,5.10
2023-11-12T05:57:24.850Z,3.50
2023-11-12T05:59:51.592Z,6.10
2023-11-12T06:02:18.307Z,3.90
2023-11-12T06:04:45.105Z,4.70
2023-11-12T06:07:12.885Z,3.30
2023-11-12T06:09:39.692Z,2.80
2023-11-12T06:12:08.384Z,5.90
2023-11-12T06:14:37.150Z,3.40
2023-11-12T06:17:06.885Z,4.10
2023-11-12T06:19:33.689Z,2.30
2023-11-12T06:22:01.743Z,5.40
2023-11-12T06:24:29.219Z,2.80
2023-11-12T06:26:56.124Z,3.00
2023-11-12T06:29:24.378Z,5.10
2023-11-12T06:31:51.802Z,3.10
2023-11-12T06:34:19.458Z,2.30
2023-11-12T06:36:46.380Z,2.00
2023-11-12T06:39:14.129Z,3.30
2023-11-12T06:41:41.797Z,4.30
2023-11-12T06:44:13.081Z,5.10
2023-11-12T06:46:46.589Z,4.70
2023-11-12T06:49:14.451Z,6.80
2023-11-12T06:51:41.255Z,4.70
2023-11-12T06:54:09.534Z,7.70
2023-11-12T06:56:36.282Z,7.40
2023-11-12T06:59:03.477Z,6.70
2023-11-12T07:01:30.428Z,7.80
2023-11-12T07:03:57.712Z,12.80
2023-11-12T07:06:24.484Z,7.60
2023-11-12T07:08:51.198Z,8.70
2023-11-12T07:11:17.905Z,5.20
2023-11-12T07:13:44.697Z,6.20
2023-11-12T07:16:17.047Z,4.30
2023-11-12T07:21:25.328Z,6.90
2023-11-12T07:23:52.239Z,7.80
2023-11-12T07:26:19.014Z,5.30
2023-11-12T07:28:46.132Z,5.60
2023-11-12T07:31:14.206Z,3.20
2023-11-12T07:33:40.939Z,3.50
2023-11-12T07:36:08.045Z,3.80
2023-11-12T07:38:35.873Z,5.30
2023-11-12T07:41:03.662Z,5.50
2023-11-12T07:43:30.383Z,3.30
2023-11-12T07:45:57.582Z,6.20
2023-11-12T07:48:24.366Z,6.10
2023-11-12T07:50:51.386Z,5.30
2023-11-12T07:53:18.152Z,5.60
2023-11-12T07:55:44.991Z,4.20
2023-11-12T07:58:11.862Z,3.90
2023-11-12T08:00:38.681Z,5.40
2023-11-12T08:03:05.508Z,5.20
2023-11-12T08:05:32.433Z,3.00
2023-11-12T08:07:59.213Z,5.10
2023-11-12T08:10:25.908Z,6.20
2023-11-12T08:12:52.798Z,4.90
2023-11-12T08:15:19.503Z,5.90
2023-11-12T08:17:47.982Z,3.70
2023-11-12T08:20:15.999Z,3.40
2023-11-12T08:22:43.974Z,3.80
2023-11-12T08:25:11.082Z,4.00
2023-11-12T08:27:38.813Z,4.50
2023-11-12T08:30:06.281Z,2.90
2023-11-12T08:32:35.635Z,6.00
2023-11-12T08:35:02.663Z,7.40
2023-11-12T08:37:29.529Z,6.70
2023-11-12T08:39:56.436Z,7.70
2023-11-12T08:42:24.683Z,6.50
2023-11-12T08:44:53.591Z,5.20
2023-11-12T08:47:21.293Z,4.80
2023-11-12T08:49:48.278Z,6.50
2023-11-12T08:52:15.439Z,4.30
2023-11-12T08:54:42.737Z,5.20
2023-11-12T08:57:12.743Z,6.50
2023-11-12T08:59:40.349Z,6.10
2023-11-12T09:02:07.194Z,8.20
2023-11-12T09:04:37.296Z,5.80
2023-11-12T09:07:04.537Z,6.00
2023-11-12T09:09:33.610Z,5.50
2023-11-12T09:12:00.380Z,5.60
2023-11-12T09:14:27.197Z,6.60
2023-11-12T09:16:54.271Z,6.50
2023-11-12T09:19:21.087Z,8.10
2023-11-12T09:21:47.907Z,5.50
2023-11-12T09:24:14.720Z,6.50
2023-11-12T09:26:41.525Z,6.50
2023-11-12T09:29:09.917Z,6.90
2023-11-12T09:31:36.673Z,5.50
2023-11-12T09:34:03.671Z,6.50
2023-11-12T09:36:30.587Z,5.80
2023-11-12T09:38:57.382Z,4.60
2023-11-12T09:41:24.751Z,3.70
2023-11-12T09:43:54.685Z,4.20
2023-11-12T09:46:23.637Z,6.50
2023-11-12T09:48:52.642Z,4.60
2023-11-12T09:51:20.817Z,6.80
2023-11-12T09:53:50.990Z,3.70
2023-11-12T09:56:17.945Z,6.10
2023-11-12T09:58:46.269Z,5.00
2023-11-12T10:01:14.252Z,7.00
2023-11-12T10:03:47.212Z,7.00
2023-11-12T10:06:14.600Z,7.10
2023-11-12T10:08:41.921Z,8.10
2023-11-12T10:11:19.109Z,8.70
2023-11-12T10:13:47.878Z,9.50
2023-11-12T10:16:29.629Z,7.60
2023-11-12T10:19:13.980Z,5.80
2023-11-12T10:21:58.037Z,6.30
2023-11-12T10:24:29.850Z,8.80
2023-11-12T10:27:01.085Z,7.10
2023-11-12T10:29:28.220Z,9.40
2023-11-12T10:31:55.297Z,6.70
2023-11-12T10:34:24.306Z,6.00
2023-11-12T10:37:20.029Z,7.50
2023-11-12T10:39:47.564Z,7.50
2023-11-12T10:42:14.302Z,7.70
2023-11-12T10:44:41.597Z,6.30
2023-11-12T10:47:12.082Z,6.30
2023-11-12T10:49:41.343Z,7.60
2023-11-12T10:52:09.355Z,5.30
2023-11-12T10:54:37.652Z,4.50
2023-11-12T10:57:05.493Z,5.40
2023-11-12T10:59:35.845Z,6.60
2023-11-12T11:02:03.782Z,3.20
2023-11-12T11:04:34.303Z,3.20
2023-11-12T11:07:01.496Z,4.10
2023-11-12T11:09:29.192Z,3.50
2023-11-12T11:11:56.835Z,3.20
2023-11-12T11:14:33.243Z,3.50
2023-11-12T11:17:00.444Z,3.70
2023-11-12T11:19:45.343Z,5.30
2023-11-12T11:22:26.994Z,5.70
2023-11-12T11:24:55.578Z,4.60
2023-11-12T11:27:26.803Z,3.50
2023-11-12T11:30:13.709Z,6.00
2023-11-12T11:32:55.071Z,4.70
2023-11-12T11:35:24.925Z,3.10
2023-11-12T11:38:13.623Z,6.60
2023-11-12T11:40:48.451Z,3.50
2023-11-12T11:46:11.331Z,4.80
2023-11-12T11:48:44.549Z,7.40
2023-11-12T11:51:34.465Z,6.70
2023-11-12T11:54:05.477Z,7.70
2023-11-12T11:56:32.992Z,7.50
2023-11-12T11:59:00.134Z,8.80
2023-11-12T12:01:26.925Z,7.60
2023-11-12T12:04:06.651Z,9.70
2023-11-12T12:06:34.153Z,9.20
2023-11-12T12:09:01.087Z,6.30
2023-11-12T12:11:28.001Z,7.90
2023-11-12T12:13:57.288Z,6.40
2023-11-12T12:16:32.104Z,6.20
2023-11-12T12:19:00.020Z,6.20
2023-11-12T12:21:26.897Z,6.20
2023-11-12T12:23:54.131Z,6.00
2023-11-12T12:26:25.350Z,5.70
2023-11-12T12:28:52.992Z,4.20
2023-11-12T12:31:20.760Z,7.10
2023-11-12T12:34:08.744Z,6.50
2023-11-12T12:36:36.513Z,7.30
2023-11-12T12:39:11.648Z,7.30
2023-11-12T12:41:38.560Z,6.10
2023-11-12T12:44:05.342Z,7.00
2023-11-12T12:46:52.353Z,6.50
2023-11-12T12:49:33.072Z,8.00
2023-11-12T12:52:03.115Z,5.30
2023-11-12T12:54:31.162Z,7.50
2023-11-12T12:56:59.999Z,5.30
2023-11-12T12:59:35.562Z,5.70
2023-11-12T13:02:03.283Z,7.10
2023-11-12T13:04:31.326Z,6.30
2023-11-12T13:07:00.877Z,4.70
2023-11-12T13:09:32.354Z,4.00
2023-11-12T13:11:59.242Z,2.70
2023-11-12T13:14:26.437Z,4.70
2023-11-12T13:16:54.503Z,4.80
2023-11-12T13:19:24.151Z,6.00
2023-11-12T13:21:57.075Z,6.20
2023-11-12T13:24:29.765Z,6.00
2023-11-12T13:26:58.209Z,5.90
2023-11-12T13:29:27.656Z,5.70
2023-11-12T13:31:57.472Z,4.70
2023-11-12T13:34:24.575Z,6.20
2023-11-12T13:36:51.886Z,3.90
2023-11-12T13:39:18.871Z,9.50
2023-11-12T13:41:48.748Z,5.70
2023-11-12T13:44:15.925Z,8.80
2023-11-12T13:46:43.500Z,6.10
2023-11-12T13:49:10.467Z,6.90
2023-11-12T13:51:41.406Z,6.20
2023-11-12T13:54:11.043Z,6.50
2023-11-12T13:56:39.555Z,5.60
2023-11-12T13:59:06.455Z,8.20
2023-11-12T14:01:33.379Z,5.60
2023-11-12T14:04:01.165Z,5.40
2023-11-12T14:06:28.193Z,7.70
2023-11-12T14:08:55.762Z,8.30
2023-11-12T14:11:22.872Z,9.70
2023-11-12T14:13:51.335Z,7.70
2023-11-12T14:16:23.726Z,7.60
2023-11-12T14:18:50.563Z,8.50
2023-11-12T14:21:18.429Z,9.30
2023-11-12T14:23:45.353Z,10.60
2023-11-12T14:26:13.252Z,10.90
2023-11-12T14:28:41.817Z,9.40
2023-11-12T14:31:11.250Z,15.70
2023-11-12T14:33:40.387Z,14.90
2023-11-12T14:36:10.947Z,22.20
2023-11-12T14:38:37.900Z,15.30
2023-11-12T14:41:05.009Z,18.00
2023-11-12T14:43:38.406Z,14.70
2023-11-12T14:46:06.213Z,9.40
2023-11-12T14:48:34.019Z,8.60
2023-11-12T14:51:05.750Z,10.90
2023-11-12T14:53:32.966Z,15.90
2023-11-12T14:55:59.680Z,15.40
2023-11-12T14:58:26.868Z,18.50
2023-11-12T15:00:55.160Z,18.90
2023-11-12T15:03:23.632Z,24.60
2023-11-12T15:05:50.566Z,22.60
2023-11-12T15:08:17.323Z,13.20
2023-11-12T15:10:44.039Z,15.90
2023-11-12T15:13:10.737Z,19.40
2023-11-12T15:15:38.023Z,15.20
2023-11-12T15:18:07.133Z,16.90
2023-11-12T15:20:35.687Z,19.50
2023-11-12T15:23:02.446Z,10.70
2023-11-12T15:25:29.321Z,11.20
2023-11-12T15:27:56.149Z,7.00
2023-11-12T15:30:25.149Z,10.00
2023-11-12T15:32:52.096Z,13.60
2023-11-12T15:35:19.749Z,11.40
2023-11-12T15:37:46.714Z,10.30
2023-11-12T15:40:17.826Z,5.80
2023-11-12T15:42:45.833Z,4.30
2023-11-12T15:45:16.328Z,6.10
2023-11-12T15:47:47.825Z,10.80
2023-11-12T15:50:15.086Z,12.90
2023-11-12T15:52:42.805Z,11.60
2023-11-12T15:55:13.106Z,8.40
2023-11-12T15:57:41.322Z,8.90
2023-11-12T16:00:13.767Z,11.20
2023-11-12T16:02:41.821Z,12.50
2023-11-12T16:05:10.315Z,12.20
2023-11-12T16:07:37.066Z,12.40
2023-11-12T16:10:05.352Z,10.10
2023-11-12T16:12:33.690Z,12.50
2023-11-12T16:15:05.133Z,14.10
2023-11-12T16:17:32.601Z,15.90
2023-11-12T16:20:00.133Z,14.90
2023-11-12T16:22:26.946Z,15.80
2023-11-12T16:24:53.659Z,18.70
2023-11-12T16:27:22.463Z,15.50
2023-11-12T16:29:49.386Z,15.90
2023-11-12T16:32:20.011Z,17.70
2023-11-12T16:34:46.786Z,28.40
2023-11-12T16:37:13.790Z,34.30
2023-11-12T16:39:45.837Z,33.40
2023-11-12T16:42:15.027Z,27.00
2023-11-12T16:44:42.908Z,18.80
2023-11-12T16:47:11.450Z,20.60
2023-11-12T16:49:38.658Z,21.20
2023-11-12T16:52:05.982Z,25.60
2023-11-12T16:54:34.083Z,21.20
2023-11-12T16:57:05.025Z,16.20
2023-11-12T16:59:31.853Z,22.90
2023-11-12T17:01:58.747Z,17.30
2023-11-12T17:04:27.646Z,18.00
2023-11-12T17:06:55.197Z,25.10
2023-11-12T17:09:22.660Z,16.80
2023-11-12T17:11:49.388Z,15.40
2023-11-12T17:14:16.686Z,12.70
2023-11-12T17:16:46.099Z,14.50
2023-11-12T17:19:14.023Z,16.10
2023-11-12T17:21:41.515Z,13.80
2023-11-12T17:24:11.646Z,11.50
2023-11-12T17:26:38.467Z,14.30
2023-11-12T17:29:05.471Z,12.80
2023-11-12T17:31:33.356Z,13.00
2023-11-12T17:34:00.520Z,12.10
2023-11-12T17:36:28.042Z,11.40
2023-11-12T17:38:55.641Z,11.50
2023-11-12T17:41:26.043Z,11.50
2023-11-12T17:43:53.841Z,14.50
2023-11-12T17:46:22.779Z,10.50
2023-11-12T17:48:51.030Z,11.10
2023-11-12T17:51:19.848Z,7.90
2023-11-12T17:53:47.088Z,10.10
2023-11-12T17:56:14.005Z,10.30
2023-11-12T17:58:40.720Z,8.50
2023-11-12T18:01:09.488Z,12.30
2023-11-12T18:03:37.746Z,9.00
2023-11-12T18:06:07.021Z,12.40
2023-11-12T18:08:34.080Z,12.00
2023-11-12T18:11:01.500Z,10.80
2023-11-12T18:13:30.601Z,10.60
2023-11-12T18:15:58.359Z,17.50
2023-11-12T18:18:28.468Z,15.70
2023-11-12T18:20:55.575Z,12.00
2023-11-12T18:23:28.641Z,12.30
2023-11-12T18:26:01.955Z,14.00
2023-11-12T18:28:29.118Z,13.10
2023-11-12T18:30:56.547Z,10.80
2023-11-12T18:33:23.724Z,13.10
2023-11-12T18:35:50.517Z,11.70
2023-11-12T18:38:18.391Z,9.80
2023-11-12T18:40:47.499Z,9.30
2023-11-12T18:43:16.059Z,10.50
2023-11-12T18:45:42.967Z,15.90
2023-11-12T18:48:10.908Z,12.30
2023-11-12T18:50:38.155Z,14.80
2023-11-12T18:53:05.333Z,16.70
2023-11-12T18:55:32.097Z,15.20
2023-11-12T18:57:59.258Z,16.60
2023-11-12T19:00:26.342Z,18.10
2023-11-12T19:02:56.531Z,17.30
2023-11-12T19:05:23.466Z,15.70
2023-11-12T19:07:50.249Z,21.40
2023-11-12T19:10:23.181Z,14.70
2023-11-12T19:12:50.456Z,9.10
2023-11-12T19:15:17.442Z,10.60
2023-11-12T19:17:45.902Z,10.90
2023-11-12T19:20:14.764Z,11.00
2023-11-12T19:22:42.421Z,10.00
2023-11-12T19:25:11.057Z,10.70
2023-11-12T19:27:39.503Z,14.50
2023-11-12T19:30:14.962Z,12.70
2023-11-12T19:32:44.028Z,13.00
2023-11-12T19:35:12.019Z,10.10
2023-11-12T19:37:39.408Z,4.50
2023-11-12T19:40:08.623Z,6.20
2023-11-12T19:42:35.602Z,10.30
2023-11-12T19:45:05.600Z,11.50
2023-11-12T19:47:32.771Z,18.20
2023-11-12T19:50:01.928Z,28.80
2023-11-12T19:52:28.991Z,29.40
2023-11-12T19:54:55.812Z,26.80
2023-11-12T19:57:22.627Z,15.70
2023-11-12T19:59:49.347Z,9.60
2023-11-12T20:02:20.049Z,9.50
2023-11-12T20:04:46.996Z,7.70
2023-11-12T20:07:14.136Z,5.20
2023-11-12T20:09:40.918Z,7.70
2023-11-12T20:12:08.554Z,9.00
2023-11-12T20:14:37.274Z,7.50
2023-11-12T20:17:04.000Z,12.40
2023-11-12T20:19:31.317Z,7.00
2023-11-12T20:21:58.039Z,39.80
2023-11-12T20:24:26.270Z,22.90
2023-11-12T20:26:54.908Z,11.10
2023-11-12T20:29:21.711Z,14.00
2023-11-12T20:31:54.159Z,10.20
2023-11-12T20:34:21.791Z,9.40
2023-11-12T20:36:50.522Z,10.60
2023-11-12T20:39:17.697Z,12.30
2023-11-12T20:41:46.331Z,11.80
2023-11-12T20:44:14.649Z,10.10
2023-11-12T20:46:45.502Z,11.00
2023-11-12T20:49:17.598Z,14.50
2023-11-12T20:51:46.043Z,8.10
2023-11-12T20:54:14.016Z,11.00
2023-11-12T20:56:41.083Z,11.40
2023-11-12T20:59:12.883Z,13.50
2023-11-12T21:01:39.942Z,11.80
2023-11-12T21:04:11.444Z,10.60
2023-11-12T21:06:41.553Z,10.00
2023-11-12T21:09:09.069Z,9.70
2023-11-12T21:11:39.838Z,12.30
2023-11-12T21:16:38.163Z,15.30
2023-11-12T21:19:06.208Z,13.20
2023-11-12T21:21:33.695Z,10.00
2023-11-12T21:24:05.526Z,14.30
2023-11-12T21:26:33.896Z,37.70
2023-11-12T21:29:00.747Z,20.60
2023-11-12T21:31:27.853Z,19.30
2023-11-12T21:33:54.944Z,14.90
2023-11-12T21:36:21.675Z,9.40
2023-11-12T21:38:48.362Z,10.00
2023-11-12T21:41:15.178Z,6.40
2023-11-12T21:43:42.312Z,10.70
2023-11-12T21:46:10.135Z,12.80
2023-11-12T21:48:40.194Z,16.30
2023-11-12T21:51:07.277Z,8.90
2023-11-12T21:53:36.069Z,4.80
2023-11-12T21:56:04.014Z,54.70
2023-11-12T21:58:31.108Z,14.50
2023-11-12T22:00:58.374Z,50.40
2023-11-12T22:03:26.582Z,14.50
2023-11-12T22:05:54.351Z,14.20
2023-11-12T22:08:22.273Z,16.70
2023-11-12T22:10:49.913Z,6.30
2023-11-12T22:13:18.422Z,5.20
2023-11-12T22:15:45.675Z,9.20
2023-11-12T22:18:12.553Z,8.20
2023-11-12T22:20:40.885Z,8.90
2023-11-12T22:23:08.074Z,8.80
2023-11-12T22:25:34.995Z,7.70
2023-11-12T22:28:01.734Z,11.10
2023-11-12T22:30:28.483Z,16.40
2023-11-12T22:32:56.394Z,34.20
2023-11-12T22:35:23.209Z,26.10
2023-11-12T22:37:50.196Z,21.40
2023-11-12T22:40:20.334Z,8.40
2023-11-12T22:42:47.277Z,8.00
2023-11-12T22:45:14.121Z,11.00
2023-11-12T22:47:42.260Z,7.50
2023-11-12T22:50:12.870Z,6.20
2023-11-12T22:52:39.738Z,11.50
2023-11-12T22:55:06.807Z,13.20
2023-11-12T22:57:35.271Z,15.50
2023-11-12T23:00:06.399Z,9.20
2023-11-12T23:02:33.319Z,8.00
2023-11-12T23:05:00.656Z,6.80
2023-11-12T23:07:27.816Z,5.50
2023-11-12T23:10:07.445Z,68.90
2023-11-12T23:12:34.605Z,22.10
2023-11-12T23:15:01.737Z,10.00
2023-11-12T23:17:28.415Z,15.80
2023-11-12T23:19:55.111Z,16.30
2023-11-12T23:22:22.404Z,14.40
2023-11-12T23:24:49.237Z,7.30
2023-11-12T23:27:16.504Z,10.60
2023-11-12T23:29:48.930Z,11.90
2023-11-12T23:32:15.959Z,12.60
2023-11-12T23:34:43.400Z,13.80
2023-11-12T23:37:10.709Z,16.40
2023-11-12T23:39:37.836Z,14.80
2023-11-12T23:42:05.193Z,13.80
2023-11-12T23:44:31.928Z,14.10
2023-11-12T23:46:58.717Z,11.50
2023-11-12T23:49:25.475Z,9.80
2023-11-12T23:51:52.336Z,8.00
2023-11-12T23:54:19.070Z,7.50
2023-11-12T23:56:48.355Z,4.30
2023-11-12T23:59:15.278Z,4.00
